createdAt,value
2024-05-09T00:02:58.783Z,100.00
2024-05-09T00:06:06.092Z,100.00
2024-05-09T00:09:10.486Z,100.00
2024-05-09T00:12:14.871Z,100.00
2024-05-09T00:15:19.228Z,100.00
2024-05-09T00:18:23.718Z,100.00
2024-05-09T00:21:30.671Z,100.00
2024-05-09T00:24:34.939Z,100.00
2024-05-09T00:27:39.275Z,100.00
2024-05-09T00:30:43.782Z,100.00
2024-05-09T00:33:48.217Z,100.00
2024-05-09T00:36:55.181Z,100.00
2024-05-09T00:39:59.450Z,100.00
2024-05-09T00:43:03.755Z,100.00
2024-05-09T00:46:08.804Z,100.00
2024-05-09T00:49:14.371Z,100.00
2024-05-09T00:52:21.502Z,100.00
2024-05-09T00:55:26.605Z,100.00
2024-05-09T00:58:32.216Z,100.00
2024-05-09T01:01:37.428Z,100.00
2024-05-09T01:04:41.922Z,100.00
2024-05-09T01:07:49.104Z,100.00
2024-05-09T01:10:53.575Z,100.00
2024-05-09T01:13:58.749Z,100.00
2024-05-09T01:17:03.185Z,100.00
2024-05-09T01:20:10.945Z,100.00
2024-05-09T01:23:23.237Z,100.00
2024-05-09T01:26:27.658Z,100.00
2024-05-09T01:29:32.009Z,100.00
2024-05-09T01:32:36.641Z,100.00
2024-05-09T01:35:42.524Z,100.00
2024-05-09T01:38:50.020Z,100.00
2024-05-09T01:41:54.388Z,100.00
2024-05-09T01:44:58.656Z,100.00
2024-05-09T01:48:03.684Z,100.00
2024-05-09T01:51:08.571Z,100.00
2024-05-09T01:54:15.618Z,100.00
2024-05-09T01:57:20.024Z,100.00
2024-05-09T02:00:36.429Z,100.00
2024-05-09T02:03:47.325Z,100.00
2024-05-09T02:06:51.722Z,100.00
2024-05-09T02:09:58.644Z,100.00
2024-05-09T02:13:03.016Z,100.00
2024-05-09T02:16:11.886Z,100.00
2024-05-09T02:19:16.334Z,100.00
2024-05-09T02:22:20.729Z,100.00
2024-05-09T02:25:27.719Z,100.00
2024-05-09T02:28:32.005Z,100.00
2024-05-09T02:31:36.323Z,100.00
2024-05-09T02:34:40.601Z,100.00
2024-05-09T02:37:44.979Z,100.00
2024-05-09T02:40:49.367Z,100.00
2024-05-09T02:43:53.693Z,100.00
2024-05-09T02:46:55.542Z,100.00
2024-05-09T02:49:59.715Z,100.00
2024-05-09T02:53:01.544Z,100.00
2024-05-09T02:56:08.715Z,100.00
2024-05-09T02:59:10.577Z,100.00
2024-05-09T03:02:14.820Z,100.00
2024-05-09T03:05:16.613Z,100.00
2024-05-09T03:08:21.061Z,100.00
2024-05-09T03:11:26.181Z,100.00
2024-05-09T03:14:31.373Z,100.00
2024-05-09T03:17:33.559Z,100.00
2024-05-09T03:20:38.412Z,100.00
2024-05-09T03:23:41.257Z,100.00
2024-05-09T03:26:48.190Z,100.00
2024-05-09T03:29:49.879Z,100.00
2024-05-09T03:32:54.276Z,100.00
2024-05-09T03:35:56.070Z,100.00
2024-05-09T03:39:00.435Z,100.00
2024-05-09T03:42:08.140Z,100.00
2024-05-09T03:45:12.448Z,100.00
2024-05-09T03:48:14.384Z,100.00
2024-05-09T03:51:18.799Z,100.00
2024-05-09T03:54:20.603Z,100.00
2024-05-09T03:57:27.361Z,100.00
2024-05-09T04:00:36.841Z,100.00
2024-05-09T04:03:43.220Z,100.00
2024-05-09T04:06:45.010Z,100.00
2024-05-09T04:09:49.262Z,100.00
2024-05-09T04:12:56.165Z,100.00
2024-05-09T04:16:00.545Z,100.00
2024-05-09T04:19:02.445Z,100.00
2024-05-09T04:22:07.192Z,100.00
2024-05-09T04:25:08.895Z,100.00
2024-05-09T04:28:16.552Z,99.76
2024-05-09T04:31:18.295Z,93.97
2024-05-09T04:34:22.749Z,96.62
2024-05-09T04:37:27.418Z,100.00
2024-05-09T04:40:34.047Z,99.10
2024-05-09T04:43:43.242Z,97.03
2024-05-09T04:46:47.414Z,96.49
2024-05-09T04:49:52.046Z,97.32
2024-05-09T04:52:53.872Z,90.15
2024-05-09T04:55:58.097Z,85.15
2024-05-09T04:59:02.493Z,82.28
2024-05-09T05:02:07.242Z,77.51
2024-05-09T05:05:09.642Z,74.13
2024-05-09T05:08:15.344Z,70.27
2024-05-09T05:11:17.491Z,67.38
2024-05-09T05:14:24.559Z,66.33
2024-05-09T05:17:28.977Z,65.15
2024-05-09T05:20:33.699Z,64.44
2024-05-09T05:23:40.765Z,66.84
2024-05-09T05:26:42.686Z,71.32
2024-05-09T05:29:49.678Z,76.27
2024-05-09T05:32:54.129Z,79.64
2024-05-09T05:35:57.292Z,88.47
2024-05-09T05:39:01.621Z,93.96
2024-05-09T05:42:03.435Z,95.96
2024-05-09T05:45:10.683Z,100.00
2024-05-09T05:48:16.197Z,100.00
2024-05-09T05:51:20.955Z,100.00
2024-05-09T05:54:22.834Z,100.00
2024-05-09T05:57:26.993Z,100.00
2024-05-09T06:00:38.204Z,95.55
2024-05-09T06:03:44.561Z,92.75
2024-05-09T06:06:48.976Z,91.49
2024-05-09T06:09:50.775Z,89.05
2024-05-09T06:12:55.072Z,87.68
2024-05-09T06:16:04.860Z,88.73
2024-05-09T06:19:06.747Z,84.57
2024-05-09T06:22:11.380Z,83.34
2024-05-09T06:25:13.233Z,86.73
2024-05-09T06:28:17.567Z,83.80
2024-05-09T06:31:22.521Z,82.46
2024-05-09T06:34:26.948Z,79.12
2024-05-09T06:37:28.807Z,77.47
2024-05-09T06:40:37.923Z,75.55
2024-05-09T06:43:44.677Z,73.95
2024-05-09T06:46:49.194Z,73.99
2024-05-09T06:49:53.726Z,70.11
2024-05-09T06:52:55.520Z,69.07
2024-05-09T06:55:59.868Z,65.88
2024-05-09T06:59:01.810Z,70.49
2024-05-09T07:02:08.939Z,71.88
2024-05-09T07:05:10.958Z,69.80
2024-05-09T07:08:15.422Z,64.81
2024-05-09T07:11:17.253Z,65.18
2024-05-09T07:14:21.671Z,61.27
2024-05-09T07:17:26.332Z,61.65
2024-05-09T07:20:34.617Z,62.73
2024-05-09T07:23:39.814Z,61.39
2024-05-09T07:26:44.243Z,59.51
2024-05-09T07:29:45.991Z,59.57
2024-05-09T07:32:53.223Z,57.77
2024-05-09T07:35:56.975Z,58.47
2024-05-09T07:39:01.281Z,55.34
2024-05-09T07:42:03.063Z,55.00
2024-05-09T07:45:29.543Z,54.81
2024-05-09T07:50:34.370Z,54.62
2024-05-09T07:53:22.102Z,59.48
2024-05-09T07:55:24.193Z,53.90
2024-05-09T07:58:27.796Z,55.70
2024-05-09T08:01:32.411Z,51.55
2024-05-09T08:04:36.827Z,51.67
2024-05-09T08:07:41.124Z,52.31
2024-05-09T08:10:43.382Z,54.37
2024-05-09T08:13:48.026Z,49.94
2024-05-09T08:16:49.770Z,53.44
2024-05-09T08:19:56.631Z,55.92
2024-05-09T08:22:58.440Z,56.62
2024-05-09T08:26:02.708Z,53.25
2024-05-09T08:29:04.547Z,49.65
2024-05-09T08:32:12.506Z,50.09
2024-05-09T08:35:16.945Z,52.61
2024-05-09T08:38:21.311Z,50.29
2024-05-09T08:41:23.023Z,46.92
2024-05-09T08:44:27.308Z,48.47
2024-05-09T08:47:31.612Z,47.52
2024-05-09T08:50:42.525Z,45.71
2024-05-09T08:53:44.397Z,46.45
2024-05-09T08:56:50.793Z,51.75
2024-05-09T08:59:53.789Z,50.09
2024-05-09T09:03:00.176Z,47.88
2024-05-09T09:06:09.327Z,47.01
2024-05-09T09:09:12.059Z,44.83
2024-05-09T09:12:17.148Z,44.55
2024-05-09T09:15:18.870Z,45.82
2024-05-09T09:18:23.264Z,47.05
2024-05-09T09:21:27.660Z,46.04
2024-05-09T09:24:32.002Z,47.77
2024-05-09T09:27:33.929Z,43.08
2024-05-09T09:30:41.717Z,40.89
2024-05-09T09:33:46.401Z,42.39
2024-05-09T09:36:51.234Z,41.54
2024-05-09T09:39:56.173Z,41.41
2024-05-09T09:42:58.195Z,39.12
2024-05-09T09:46:03.500Z,41.75
2024-05-09T09:49:06.839Z,38.77
2024-05-09T09:52:15.103Z,41.51
2024-05-09T09:55:17.536Z,38.60
2024-05-09T09:58:22.143Z,40.20
2024-05-09T10:01:24.091Z,40.59
2024-05-09T10:04:28.637Z,38.73
2024-05-09T10:07:34.564Z,39.63
2024-05-09T10:10:39.632Z,39.20
2024-05-09T10:13:44.452Z,40.32
2024-05-09T10:16:46.265Z,39.13
2024-05-09T10:19:50.890Z,37.75
2024-05-09T10:22:55.322Z,36.11
2024-05-09T10:26:05.129Z,40.32
2024-05-09T10:29:12.252Z,37.52
2024-05-09T10:32:16.715Z,37.29
2024-05-09T10:35:22.567Z,36.26
2024-05-09T10:38:29.618Z,38.22
2024-05-09T10:41:33.910Z,38.08
2024-05-09T10:44:40.453Z,36.12
2024-05-09T10:47:45.259Z,40.26
2024-05-09T10:50:47.407Z,38.02
2024-05-09T10:53:56.707Z,35.85
2024-05-09T10:56:58.424Z,35.84
2024-05-09T11:00:06.316Z,35.46
2024-05-09T11:03:11.456Z,33.74
2024-05-09T11:06:17.416Z,35.67
2024-05-09T11:09:22.006Z,32.87
2024-05-09T11:12:27.145Z,33.71
2024-05-09T11:15:38.033Z,38.22
2024-05-09T11:18:43.339Z,38.67
2024-05-09T11:21:50.885Z,39.06
2024-05-09T11:24:57.874Z,38.57
2024-05-09T11:27:59.689Z,35.60
2024-05-09T11:31:09.742Z,38.45
2024-05-09T11:34:12.600Z,35.98
2024-05-09T11:37:17.005Z,35.79
2024-05-09T11:40:25.676Z,34.56
2024-05-09T11:43:36.481Z,33.20
2024-05-09T11:46:38.182Z,33.73
2024-05-09T11:49:42.643Z,33.80
2024-05-09T11:52:47.512Z,33.47
2024-05-09T11:55:54.593Z,32.50
2024-05-09T11:58:56.542Z,32.40
2024-05-09T12:02:01.338Z,33.31
2024-05-09T12:05:03.610Z,32.26
2024-05-09T12:08:09.164Z,35.15
2024-05-09T12:11:16.879Z,32.02
2024-05-09T12:14:22.086Z,30.47
2024-05-09T12:17:23.920Z,31.70
2024-05-09T12:20:36.181Z,30.80
2024-05-09T12:23:43.259Z,30.78
2024-05-09T12:26:50.331Z,38.50
2024-05-09T12:29:54.642Z,33.94
2024-05-09T12:32:56.492Z,35.24
2024-05-09T12:36:01.043Z,36.41
2024-05-09T12:39:03.046Z,34.55
2024-05-09T12:42:12.657Z,34.72
2024-05-09T12:45:23.621Z,34.52
2024-05-09T12:48:25.525Z,35.87
2024-05-09T12:51:31.075Z,35.57
2024-05-09T12:54:36.006Z,37.13
2024-05-09T12:57:40.426Z,36.44
2024-05-09T13:00:44.984Z,36.06
2024-05-09T13:03:47.034Z,37.42
2024-05-09T13:06:51.915Z,37.38
2024-05-09T13:09:56.236Z,35.52
2024-05-09T13:13:01.300Z,34.69
2024-05-09T13:16:07.378Z,34.25
2024-05-09T13:19:09.308Z,35.10
2024-05-09T13:22:13.684Z,35.15
2024-05-09T13:25:15.548Z,37.07
2024-05-09T13:28:22.849Z,37.72
2024-05-09T13:31:24.733Z,37.49
2024-05-09T13:34:29.214Z,37.23
2024-05-09T13:37:33.006Z,36.25
2024-05-09T13:40:38.078Z,36.43
2024-05-09T13:43:42.427Z,33.28
2024-05-09T13:46:46.817Z,34.18
2024-05-09T13:49:48.837Z,33.94
2024-05-09T13:52:53.174Z,36.52
2024-05-09T13:55:54.933Z,34.67
2024-05-09T13:59:01.952Z,36.78
2024-05-09T14:02:07.631Z,37.65
2024-05-09T14:05:12.812Z,35.13
2024-05-09T14:08:15.693Z,34.04
2024-05-09T14:11:20.294Z,35.11
2024-05-09T14:14:27.200Z,38.61
2024-05-09T14:17:29.668Z,40.29
2024-05-09T14:20:34.016Z,37.67
2024-05-09T14:23:38.617Z,37.54
2024-05-09T14:26:40.401Z,36.73
2024-05-09T14:29:47.247Z,37.59
2024-05-09T14:32:49.219Z,37.72
2024-05-09T14:35:54.441Z,37.86
2024-05-09T14:38:56.666Z,37.54
2024-05-09T14:42:01.085Z,37.42
2024-05-09T14:45:06.230Z,38.43
2024-05-09T14:48:11.356Z,38.16
2024-05-09T14:51:13.191Z,37.90
2024-05-09T14:54:17.638Z,37.26
2024-05-09T14:57:19.534Z,35.73
2024-05-09T15:00:33.072Z,36.79
2024-05-09T15:03:40.090Z,41.24
2024-05-09T15:06:44.767Z,39.02
2024-05-09T15:09:47.202Z,39.92
2024-05-09T15:12:51.584Z,37.70
2024-05-09T15:15:56.109Z,39.41
2024-05-09T15:19:00.818Z,37.94
2024-05-09T15:22:02.691Z,37.90
2024-05-09T15:25:07.715Z,38.21
2024-05-09T15:28:12.376Z,39.05
2024-05-09T15:31:16.846Z,38.21
2024-05-09T15:34:21.204Z,37.31
2024-05-09T15:37:23.088Z,36.44
2024-05-09T15:40:36.191Z,37.37
2024-05-09T15:43:44.158Z,40.93
2024-05-09T15:46:48.743Z,41.55
2024-05-09T15:49:53.164Z,40.34
2024-05-09T15:52:55.348Z,41.95
2024-05-09T15:55:59.739Z,42.09
2024-05-09T15:59:01.522Z,40.56
2024-05-09T16:02:11.390Z,41.96
2024-05-09T16:05:15.961Z,44.69
2024-05-09T16:08:20.470Z,45.15
2024-05-09T16:11:24.802Z,46.29
2024-05-09T16:14:26.674Z,45.57
2024-05-09T16:17:33.696Z,46.84
2024-05-09T16:20:40.075Z,45.78
2024-05-09T16:23:47.422Z,44.86
2024-05-09T16:26:49.183Z,46.11
2024-05-09T16:29:53.659Z,47.18
2024-05-09T16:32:58.133Z,47.79
2024-05-09T16:36:02.628Z,48.71
2024-05-09T16:39:04.383Z,50.41
2024-05-09T16:42:08.673Z,50.33
2024-05-09T16:45:12.239Z,51.96
2024-05-09T16:48:19.551Z,51.10
2024-05-09T16:51:24.294Z,51.73
2024-05-09T16:54:28.609Z,54.89
2024-05-09T16:57:33.044Z,51.47
2024-05-09T17:00:40.814Z,55.51
2024-05-09T17:03:50.292Z,53.02
2024-05-09T17:06:54.801Z,52.63
2024-05-09T17:09:56.540Z,54.56
2024-05-09T17:13:01.005Z,55.43
2024-05-09T17:16:05.388Z,55.86
2024-05-09T17:19:12.731Z,57.65
2024-05-09T17:22:15.061Z,58.44
2024-05-09T17:25:20.200Z,58.64
2024-05-09T17:28:22.265Z,59.87
2024-05-09T17:31:26.735Z,62.00
2024-05-09T17:34:33.925Z,63.53
2024-05-09T17:37:36.023Z,62.50
2024-05-09T17:40:40.528Z,63.06
2024-05-09T17:43:42.444Z,65.03
2024-05-09T17:46:46.752Z,66.29
2024-05-09T17:49:51.104Z,67.51
2024-05-09T17:52:55.531Z,68.04
2024-05-09T17:55:59.246Z,67.77
2024-05-09T17:59:03.520Z,66.98
2024-05-09T18:02:05.425Z,66.79
2024-05-09T18:05:12.700Z,68.76
2024-05-09T18:08:17.102Z,68.85
2024-05-09T18:11:21.659Z,70.51
2024-05-09T18:14:23.385Z,72.29
2024-05-09T18:17:27.620Z,72.34
2024-05-09T18:20:40.499Z,71.89
2024-05-09T18:23:52.888Z,72.61
2024-05-09T18:26:57.433Z,74.45
2024-05-09T18:29:59.812Z,76.92
2024-05-09T18:33:05.353Z,78.58
2024-05-09T18:36:13.787Z,79.41
2024-05-09T18:39:16.665Z,81.38
2024-05-09T18:42:21.178Z,84.14
2024-05-09T18:45:22.933Z,88.01
2024-05-09T18:48:27.186Z,91.74
2024-05-09T18:51:32.107Z,93.33
2024-05-09T18:54:36.526Z,97.88
2024-05-09T18:57:40.978Z,100.00
2024-05-09T19:00:45.410Z,100.00
2024-05-09T19:03:52.310Z,100.00
2024-05-09T19:06:56.796Z,100.00
2024-05-09T19:10:01.203Z,100.00
2024-05-09T19:13:08.001Z,100.00
2024-05-09T19:16:15.536Z,100.00
2024-05-09T19:19:17.523Z,100.00
2024-05-09T19:22:24.590Z,100.00
2024-05-09T19:25:26.337Z,100.00
2024-05-09T19:28:30.564Z,100.00
2024-05-09T19:31:34.983Z,100.00
2024-05-09T19:34:39.297Z,100.00
2024-05-09T19:37:44.451Z,100.00
2024-05-09T19:40:48.918Z,100.00
2024-05-09T19:43:50.734Z,100.00
2024-05-09T19:46:54.986Z,100.00
2024-05-09T19:49:56.763Z,100.00
2024-05-09T19:53:03.560Z,100.00
2024-05-09T19:56:05.570Z,100.00
2024-05-09T19:59:09.866Z,100.00
2024-05-09T20:02:11.767Z,100.00
2024-05-09T20:05:16.461Z,100.00
2024-05-09T20:08:20.891Z,100.00
2024-05-09T20:11:26.280Z,100.00
2024-05-09T20:14:28.285Z,100.00
2024-05-09T20:17:32.630Z,100.00
2024-05-09T20:20:39.848Z,100.00
2024-05-09T20:23:49.580Z,100.00
2024-05-09T20:26:51.301Z,100.00
2024-05-09T20:29:55.519Z,100.00
2024-05-09T20:33:00.115Z,100.00
2024-05-09T20:36:04.608Z,100.00
2024-05-09T20:39:09.129Z,100.00
2024-05-09T20:42:13.428Z,100.00
2024-05-09T20:45:15.282Z,100.00
2024-05-09T20:48:19.487Z,100.00
2024-05-09T20:51:23.785Z,100.00
2024-05-09T20:54:28.075Z,100.00
2024-05-09T20:57:32.452Z,100.00
2024-05-09T21:00:39.630Z,100.00
2024-05-09T21:03:47.691Z,100.00
2024-05-09T21:06:49.582Z,100.00
2024-05-09T21:09:56.569Z,100.00
2024-05-09T21:12:58.416Z,100.00
2024-05-09T21:16:02.750Z,100.00
2024-05-09T21:19:04.595Z,100.00
2024-05-09T21:22:08.782Z,100.00
2024-05-09T21:25:13.388Z,100.00
2024-05-09T21:28:17.747Z,100.00
2024-05-09T21:31:19.691Z,100.00
2024-05-09T21:34:24.183Z,100.00
2024-05-09T21:37:26.103Z,100.00
2024-05-09T21:40:35.298Z,100.00
2024-05-09T21:43:41.147Z,100.00
2024-05-09T21:46:43.114Z,100.00
2024-05-09T21:49:47.521Z,100.00
2024-05-09T21:52:49.224Z,100.00
2024-05-09T21:55:56.067Z,100.00
2024-05-09T21:59:00.363Z,100.00
2024-05-09T22:02:02.536Z,100.00
2024-05-09T22:05:08.033Z,100.00
2024-05-09T22:08:12.715Z,100.00
2024-05-09T22:11:17.096Z,100.00
2024-05-09T22:14:21.952Z,100.00
2024-05-09T22:17:23.719Z,100.00
2024-05-09T22:20:34.501Z,100.00
2024-05-09T22:23:39.699Z,100.00
2024-05-09T22:26:46.550Z,100.00
2024-05-09T22:29:48.276Z,100.00
2024-05-09T22:32:52.610Z,100.00
2024-05-09T22:35:54.357Z,100.00
2024-05-09T22:38:58.653Z,100.00
2024-05-09T22:42:03.122Z,100.00
2024-05-09T22:45:08.093Z,100.00
2024-05-09T22:48:10.162Z,100.00
2024-05-09T22:51:15.285Z,100.00
2024-05-09T22:54:16.996Z,100.00
2024-05-09T22:57:23.877Z,100.00
2024-05-09T23:00:31.487Z,100.00
2024-05-09T23:03:37.231Z,100.00
2024-05-09T23:06:43.150Z,100.00
2024-05-09T23:09:44.995Z,100.00
2024-05-09T23:12:51.766Z,100.00
2024-05-09T23:15:53.542Z,100.00
2024-05-09T23:18:57.890Z,100.00
2024-05-09T23:21:59.738Z,100.00
2024-05-09T23:25:04.303Z,100.00
2024-05-09T23:28:11.507Z,100.00
2024-05-09T23:31:13.457Z,100.00
2024-05-09T23:34:17.879Z,100.00
2024-05-09T23:37:19.866Z,100.00
2024-05-09T23:40:34.654Z,100.00
2024-05-09T23:43:43.179Z,100.00
2024-05-09T23:46:47.523Z,100.00
2024-05-09T23:49:49.242Z,100.00
2024-05-09T23:52:53.519Z,100.00
2024-05-09T23:55:55.482Z,100.00
2024-05-09T23:59:02.325Z,100.00
